createdAt,value
2022-07-30T00:02:14.452Z,7.80
2022-07-30T00:05:01.316Z,6.73
2022-07-30T00:10:59.904Z,5.30
2022-07-30T00:13:47.594Z,5.50
2022-07-30T00:16:34.144Z,5.93
2022-07-30T00:19:20.304Z,7.17
2022-07-30T00:22:08.289Z,8.40
2022-07-30T00:24:54.466Z,8.37
2022-07-30T00:27:40.647Z,8.70
2022-07-30T00:30:28.091Z,5.60
2022-07-30T00:33:14.325Z,6.37
2022-07-30T00:36:00.581Z,6.57
2022-07-30T00:38:47.104Z,5.03
2022-07-30T00:41:33.586Z,8.67
2022-07-30T00:44:19.627Z,5.40
2022-07-30T00:47:07.270Z,6.07
2022-07-30T00:49:53.634Z,10.43
2022-07-30T00:52:40.560Z,6.87
2022-07-30T00:55:26.709Z,5.80
2022-07-30T00:58:13.111Z,5.70
2022-07-30T01:00:59.834Z,7.20
2022-07-30T01:03:47.815Z,7.80
2022-07-30T01:06:34.410Z,6.90
2022-07-30T01:09:20.600Z,7.57
2022-07-30T01:12:09.787Z,5.40
2022-07-30T01:14:57.830Z,6.37
2022-07-30T01:17:44.571Z,9.87
2022-07-30T01:20:46.388Z,5.23
2022-07-30T01:23:43.423Z,5.87
2022-07-30T01:26:32.628Z,6.50
2022-07-30T01:29:20.388Z,4.90
2022-07-30T01:32:09.768Z,6.13
2022-07-30T01:34:57.969Z,5.73
2022-07-30T01:37:45.696Z,5.87
2022-07-30T01:40:33.075Z,5.90
2022-07-30T01:43:23.549Z,6.53
2022-07-30T01:46:11.107Z,6.43
2022-07-30T01:48:59.151Z,11.33
2022-07-30T01:51:48.842Z,5.40
2022-07-30T01:54:35.957Z,6.87
2022-07-30T01:57:23.285Z,7.17
2022-07-30T02:00:12.668Z,7.67
2022-07-30T02:02:59.141Z,5.77
2022-07-30T02:05:51.744Z,5.80
2022-07-30T02:08:41.314Z,7.23
2022-07-30T02:11:45.322Z,7.27
2022-07-30T02:14:39.501Z,6.90
2022-07-30T02:17:39.636Z,7.40
2022-07-30T02:20:29.229Z,6.43
2022-07-30T02:23:18.019Z,7.53
2022-07-30T02:26:04.735Z,6.43
2022-07-30T02:28:55.102Z,7.30
2022-07-30T02:31:42.822Z,5.47
2022-07-30T02:34:33.755Z,7.77
2022-07-30T02:37:41.678Z,6.47
2022-07-30T02:40:29.847Z,7.53
2022-07-30T02:43:16.892Z,5.40
2022-07-30T02:46:04.040Z,5.90
2022-07-30T02:48:52.215Z,5.90
2022-07-30T02:51:40.684Z,5.40
2022-07-30T02:54:31.253Z,6.47
2022-07-30T02:57:19.524Z,7.07
2022-07-30T03:00:07.119Z,7.13
2022-07-30T03:02:56.696Z,5.40
2022-07-30T03:05:44.797Z,7.13
2022-07-30T03:08:33.785Z,8.70
2022-07-30T03:11:20.557Z,7.73
2022-07-30T03:14:07.906Z,5.77
2022-07-30T03:16:57.632Z,9.67
2022-07-30T03:19:46.297Z,6.10
2022-07-30T03:22:35.403Z,7.03
2022-07-30T03:25:26.766Z,6.70
2022-07-30T03:28:14.204Z,6.70
2022-07-30T03:31:01.111Z,6.50
2022-07-30T03:33:48.402Z,7.00
2022-07-30T03:36:35.106Z,8.97
2022-07-30T03:39:23.267Z,8.57
2022-07-30T03:42:11.766Z,7.47
2022-07-30T03:44:58.571Z,8.10
2022-07-30T03:47:45.931Z,8.87
2022-07-30T03:50:32.577Z,8.23
2022-07-30T03:53:20.538Z,9.13
2022-07-30T03:56:07.231Z,7.43
2022-07-30T03:58:55.481Z,10.27
2022-07-30T04:01:41.805Z,10.37
2022-07-30T04:04:28.445Z,11.47
2022-07-30T04:07:14.664Z,11.77
2022-07-30T04:10:00.829Z,10.27
2022-07-30T04:12:47.206Z,10.03
2022-07-30T04:16:05.575Z,10.90
2022-07-30T04:18:51.661Z,10.07
2022-07-30T04:21:40.367Z,8.07
2022-07-30T04:24:29.145Z,8.50
2022-07-30T04:27:16.986Z,8.70
2022-07-30T04:30:04.033Z,9.00
2022-07-30T04:32:51.760Z,10.40
2022-07-30T04:35:51.191Z,8.30
2022-07-30T04:38:38.523Z,9.47
2022-07-30T04:41:24.851Z,9.50
2022-07-30T04:44:11.269Z,17.70
2022-07-30T04:46:57.723Z,13.80
2022-07-30T04:49:46.351Z,10.73
2022-07-30T04:52:34.142Z,11.20
2022-07-30T04:55:22.613Z,13.97
2022-07-30T04:58:10.673Z,16.27
2022-07-30T05:00:58.646Z,12.80
2022-07-30T05:03:45.759Z,14.33
2022-07-30T05:06:34.062Z,17.13
2022-07-30T05:09:20.944Z,17.27
2022-07-30T05:12:08.043Z,16.70
2022-07-30T05:14:54.414Z,20.83
2022-07-30T05:17:40.892Z,22.67
2022-07-30T05:20:27.176Z,22.17
2022-07-30T05:23:14.556Z,19.50
2022-07-30T05:26:00.692Z,19.80
2022-07-30T05:28:52.108Z,21.37
2022-07-30T05:31:40.644Z,19.60
2022-07-30T05:34:27.137Z,22.93
2022-07-30T05:37:13.622Z,22.20
2022-07-30T05:40:03.386Z,19.93
2022-07-30T05:42:50.576Z,20.93
2022-07-30T05:45:36.762Z,21.93
2022-07-30T05:48:23.466Z,23.70
2022-07-30T05:51:09.864Z,21.57
2022-07-30T05:53:56.263Z,23.83
2022-07-30T05:56:44.178Z,23.33
2022-07-30T05:59:30.793Z,24.10
2022-07-30T06:02:17.454Z,27.63
2022-07-30T06:05:04.192Z,24.57
2022-07-30T06:07:50.593Z,24.80
2022-07-30T06:10:36.979Z,25.50
2022-07-30T06:13:24.762Z,26.10
2022-07-30T06:16:11.271Z,27.83
2022-07-30T06:18:57.759Z,25.60
2022-07-30T06:22:05.916Z,24.90
2022-07-30T06:24:50.053Z,28.10
2022-07-30T06:27:39.583Z,26.03
2022-07-30T06:30:30.316Z,27.80
2022-07-30T06:33:17.513Z,26.73
2022-07-30T06:36:03.635Z,29.63
2022-07-30T06:38:49.740Z,28.83
2022-07-30T06:41:36.353Z,24.83
2022-07-30T06:44:22.767Z,26.03
2022-07-30T06:47:10.714Z,29.33
2022-07-30T06:49:57.718Z,29.17
2022-07-30T06:52:43.967Z,26.70
2022-07-30T06:55:30.401Z,25.30
2022-07-30T06:58:16.906Z,26.10
2022-07-30T07:01:12.213Z,27.30
2022-07-30T07:04:00.025Z,23.10
2022-07-30T07:06:46.193Z,23.07
2022-07-30T07:09:32.729Z,23.57
2022-07-30T07:12:25.164Z,23.27
2022-07-30T07:15:11.558Z,21.10
2022-07-30T07:17:57.878Z,23.60
2022-07-30T07:20:48.231Z,22.30
2022-07-30T07:23:41.398Z,21.10
2022-07-30T07:26:28.819Z,21.00
2022-07-30T07:29:15.035Z,21.17
2022-07-30T07:32:05.136Z,21.37
2022-07-30T07:34:53.938Z,20.57
2022-07-30T07:37:41.869Z,20.97
2022-07-30T07:40:28.106Z,21.83
2022-07-30T07:43:14.534Z,19.37
2022-07-30T07:46:00.709Z,21.33
2022-07-30T07:48:46.883Z,18.70
2022-07-30T07:51:46.685Z,20.73
2022-07-30T07:54:36.385Z,19.23
2022-07-30T07:57:24.538Z,20.00
2022-07-30T08:00:14.576Z,17.77
2022-07-30T08:03:00.745Z,18.40
2022-07-30T08:06:00.945Z,17.63
2022-07-30T08:08:53.819Z,19.63
2022-07-30T08:11:41.503Z,19.97
2022-07-30T08:14:27.671Z,18.00
2022-07-30T08:17:14.191Z,15.50
2022-07-30T08:20:01.137Z,20.47
2022-07-30T08:22:47.222Z,18.83
2022-07-30T08:25:33.634Z,18.67
2022-07-30T08:28:35.714Z,16.17
2022-07-30T08:31:22.753Z,17.57
2022-07-30T08:34:09.310Z,17.97
2022-07-30T08:36:55.466Z,17.73
2022-07-30T08:39:41.835Z,19.93
2022-07-30T08:42:28.707Z,14.43
2022-07-30T08:45:18.502Z,14.33
2022-07-30T08:48:13.601Z,17.17
2022-07-30T08:51:02.023Z,13.63
2022-07-30T08:53:48.611Z,14.40
2022-07-30T08:56:35.549Z,18.60
2022-07-30T08:59:24.483Z,16.33
2022-07-30T09:02:33.270Z,12.27
2022-07-30T09:05:19.562Z,12.77
2022-07-30T09:08:08.798Z,15.67
2022-07-30T09:10:55.454Z,14.13
2022-07-30T09:13:44.418Z,12.13
2022-07-30T09:16:30.503Z,12.40
2022-07-30T09:19:19.922Z,14.40
2022-07-30T09:22:06.739Z,12.77
2022-07-30T09:24:52.850Z,12.67
2022-07-30T09:27:47.057Z,12.30
2022-07-30T09:30:45.802Z,9.10
2022-07-30T09:33:35.233Z,12.30
2022-07-30T09:36:23.843Z,9.33
2022-07-30T09:39:10.242Z,11.07
2022-07-30T09:41:56.972Z,13.00
2022-07-30T09:44:43.764Z,11.00
2022-07-30T09:47:33.821Z,11.33
2022-07-30T09:50:30.144Z,9.83
2022-07-30T09:53:22.305Z,10.27
2022-07-30T09:56:27.126Z,13.23
2022-07-30T09:59:35.247Z,10.77
2022-07-30T10:02:22.322Z,10.30
2022-07-30T10:05:19.112Z,9.10
2022-07-30T10:08:09.315Z,7.63
2022-07-30T10:11:05.006Z,10.33
2022-07-30T10:13:57.313Z,11.30
2022-07-30T10:16:44.721Z,8.67
2022-07-30T10:19:40.469Z,7.27
2022-07-30T10:22:28.883Z,8.83
2022-07-30T10:25:18.971Z,10.43
2022-07-30T10:28:09.358Z,5.07
2022-07-30T10:30:57.672Z,8.00
2022-07-30T10:33:46.801Z,9.50
2022-07-30T10:36:35.507Z,12.30
2022-07-30T10:39:26.425Z,6.70
2022-07-30T10:42:26.194Z,7.63
2022-07-30T10:45:24.712Z,9.90
2022-07-30T10:48:11.441Z,6.77
2022-07-30T10:50:59.776Z,8.00
2022-07-30T10:53:48.503Z,6.27
2022-07-30T10:56:34.780Z,9.40
2022-07-30T10:59:20.840Z,5.67
2022-07-30T11:02:11.670Z,7.70
2022-07-30T11:05:43.799Z,7.53
2022-07-30T11:08:36.190Z,6.40
2022-07-30T11:12:01.098Z,4.80
2022-07-30T11:15:06.591Z,6.27
2022-07-30T11:18:12.187Z,4.53
2022-07-30T11:21:16.594Z,7.50
2022-07-30T11:24:03.405Z,6.23
2022-07-30T11:26:52.970Z,4.83
2022-07-30T11:29:51.240Z,5.73
2022-07-30T11:32:37.929Z,6.07
2022-07-30T11:35:34.862Z,8.83
2022-07-30T11:38:22.353Z,6.90
2022-07-30T11:41:12.196Z,5.27
2022-07-30T11:44:29.839Z,4.70
2022-07-30T11:47:16.557Z,4.20
2022-07-30T11:50:03.611Z,5.88
2022-07-30T11:52:52.265Z,4.03
2022-07-30T11:55:40.000Z,5.13
2022-07-30T11:58:32.105Z,5.35
2022-07-30T12:01:18.365Z,13.10
2022-07-30T12:04:05.781Z,3.63
2022-07-30T12:06:52.329Z,4.07
2022-07-30T12:09:39.780Z,5.15
2022-07-30T12:12:29.805Z,2.87
2022-07-30T12:15:32.002Z,5.47
2022-07-30T12:18:26.881Z,4.35
2022-07-30T12:21:15.897Z,4.07
2022-07-30T12:24:07.278Z,5.07
2022-07-30T12:27:06.104Z,3.53
2022-07-30T12:29:52.894Z,3.75
2022-07-30T12:32:39.489Z,4.15
2022-07-30T12:35:43.062Z,3.88
2022-07-30T12:38:30.315Z,3.95
2022-07-30T12:41:16.804Z,2.33
2022-07-30T12:44:04.142Z,2.83
2022-07-30T12:46:50.271Z,2.60
2022-07-30T12:49:48.820Z,2.75
2022-07-30T12:52:37.638Z,2.95
2022-07-30T12:55:32.082Z,4.97
2022-07-30T12:58:18.437Z,1.98
2022-07-30T13:01:06.256Z,4.28
2022-07-30T13:04:05.700Z,2.47
2022-07-30T13:07:05.981Z,2.53
2022-07-30T13:10:07.445Z,2.70
2022-07-30T13:12:53.838Z,2.53
2022-07-30T13:15:41.384Z,1.83
2022-07-30T13:18:42.138Z,2.10
2022-07-30T13:21:28.394Z,3.47
2022-07-30T13:24:17.808Z,2.95
2022-07-30T13:27:04.567Z,38.72
2022-07-30T13:29:51.140Z,2.92
2022-07-30T13:32:37.580Z,3.65
2022-07-30T13:35:25.224Z,3.08
2022-07-30T13:38:13.463Z,4.95
2022-07-30T13:41:02.721Z,2.50
2022-07-30T13:43:49.608Z,3.90
2022-07-30T13:46:35.989Z,6.95
2022-07-30T13:49:21.951Z,3.80
2022-07-30T13:52:09.879Z,2.72
2022-07-30T13:54:56.417Z,3.38
2022-07-30T13:57:44.211Z,2.60
2022-07-30T14:00:33.686Z,2.53
2022-07-30T14:03:20.142Z,2.55
2022-07-30T14:06:11.153Z,2.95
2022-07-30T14:08:59.302Z,4.28
2022-07-30T14:11:45.679Z,4.53
2022-07-30T14:14:32.174Z,2.25
2022-07-30T14:17:18.658Z,3.03
2022-07-30T14:20:06.327Z,4.13
2022-07-30T14:22:52.561Z,3.75
2022-07-30T14:25:41.963Z,6.55
2022-07-30T14:28:28.259Z,3.15
2022-07-30T14:31:14.339Z,2.90
2022-07-30T14:34:00.520Z,4.25
2022-07-30T14:36:46.658Z,2.03
2022-07-30T14:39:32.905Z,2.72
2022-07-30T14:42:21.451Z,2.78
2022-07-30T14:45:09.291Z,3.35
2022-07-30T14:47:56.250Z,2.25
2022-07-30T14:51:11.643Z,1.92
2022-07-30T14:53:50.157Z,3.80
2022-07-30T14:56:36.471Z,3.72
2022-07-30T14:59:24.305Z,3.60
2022-07-30T15:02:11.728Z,4.47
2022-07-30T15:04:58.261Z,4.05
2022-07-30T15:07:44.577Z,2.83
2022-07-30T15:10:30.707Z,2.28
2022-07-30T15:13:16.966Z,2.67
2022-07-30T15:16:06.386Z,3.25
2022-07-30T15:18:52.567Z,4.05
2022-07-30T15:21:38.857Z,4.68
2022-07-30T15:24:26.263Z,2.45
2022-07-30T15:27:14.026Z,3.50
2022-07-30T15:30:00.037Z,3.50
2022-07-30T15:32:47.736Z,2.50
2022-07-30T15:35:33.970Z,2.67
2022-07-30T15:38:20.482Z,3.88
2022-07-30T15:41:10.366Z,5.43
2022-07-30T15:43:59.512Z,3.30
2022-07-30T15:46:45.824Z,4.82
2022-07-30T15:49:33.472Z,6.22
2022-07-30T15:52:19.683Z,2.80
2022-07-30T15:55:07.068Z,3.20
2022-07-30T15:57:53.312Z,2.03
2022-07-30T16:00:39.756Z,4.97
2022-07-30T16:03:27.312Z,3.90
2022-07-30T16:06:15.368Z,2.30
2022-07-30T16:09:01.955Z,5.53
2022-07-30T16:11:49.674Z,3.20
2022-07-30T16:14:36.294Z,3.60
2022-07-30T16:17:22.772Z,3.55
2022-07-30T16:20:10.602Z,2.17
2022-07-30T16:22:58.292Z,3.08
2022-07-30T16:25:44.453Z,3.45
2022-07-30T16:28:30.690Z,5.15
2022-07-30T16:31:17.464Z,3.78
2022-07-30T16:34:04.018Z,4.53
2022-07-30T16:36:50.358Z,4.60
2022-07-30T16:39:38.156Z,2.50
2022-07-30T16:42:26.838Z,3.85
2022-07-30T16:45:13.291Z,4.30
2022-07-30T16:47:59.416Z,2.60
2022-07-30T16:50:46.171Z,2.85
2022-07-30T16:53:32.651Z,3.08
2022-07-30T16:56:20.290Z,1.85
2022-07-30T16:59:10.585Z,2.85
2022-07-30T17:01:59.691Z,2.58
2022-07-30T17:04:47.622Z,1.67
2022-07-30T17:07:33.734Z,2.65
2022-07-30T17:10:25.773Z,2.65
2022-07-30T17:13:14.018Z,2.92
2022-07-30T17:16:00.290Z,2.03
2022-07-30T17:18:46.696Z,4.63
2022-07-30T17:21:32.776Z,3.50
2022-07-30T17:24:19.352Z,1.70
2022-07-30T17:27:05.618Z,2.45
2022-07-30T17:29:53.406Z,1.70
2022-07-30T17:32:39.723Z,1.60
2022-07-30T17:35:26.237Z,4.10
2022-07-30T17:38:12.544Z,3.35
2022-07-30T17:40:58.768Z,2.55
2022-07-30T17:43:45.133Z,3.47
2022-07-30T17:46:34.041Z,3.95
2022-07-30T17:49:20.382Z,2.13
2022-07-30T17:52:07.226Z,3.53
2022-07-30T17:54:54.026Z,3.35
2022-07-30T17:57:40.463Z,1.73
2022-07-30T18:00:26.785Z,2.50
2022-07-30T18:03:14.597Z,3.15
2022-07-30T18:06:01.115Z,4.97
2022-07-30T18:08:48.570Z,3.75
2022-07-30T18:11:35.103Z,3.40
2022-07-30T18:14:23.872Z,4.03
2022-07-30T18:17:14.083Z,2.10
2022-07-30T18:20:02.295Z,3.97
2022-07-30T18:22:51.627Z,6.67
2022-07-30T18:25:51.830Z,3.43
2022-07-30T18:28:39.840Z,5.73
2022-07-30T18:31:25.763Z,2.10
2022-07-30T18:34:12.105Z,3.27
2022-07-30T18:36:59.835Z,2.37
2022-07-30T18:39:46.217Z,2.10
2022-07-30T18:42:32.357Z,3.43
2022-07-30T18:45:19.051Z,2.63
2022-07-30T18:48:05.881Z,3.07
2022-07-30T18:50:52.853Z,3.23
2022-07-30T18:53:40.449Z,2.03
2022-07-30T18:56:26.487Z,3.93
2022-07-30T18:59:12.675Z,2.50
2022-07-30T19:01:58.962Z,2.30
2022-07-30T19:04:45.906Z,2.60
2022-07-30T19:07:57.870Z,5.70
2022-07-30T19:10:40.085Z,5.63
2022-07-30T19:13:26.464Z,2.20
2022-07-30T19:16:12.901Z,2.93
2022-07-30T19:18:59.364Z,3.00
2022-07-30T19:21:45.830Z,2.53
2022-07-30T19:24:32.002Z,4.37
2022-07-30T19:27:19.942Z,3.33
2022-07-30T19:30:07.466Z,2.63
2022-07-30T19:32:53.368Z,2.60
2022-07-30T19:35:39.800Z,5.17
2022-07-30T19:38:26.353Z,3.53
2022-07-30T19:41:14.129Z,2.83
2022-07-30T19:44:01.923Z,2.47
2022-07-30T19:46:51.561Z,3.40
2022-07-30T19:49:40.481Z,2.83
2022-07-30T19:52:27.053Z,4.23
2022-07-30T19:55:17.142Z,3.60
2022-07-30T19:58:19.581Z,3.17
2022-07-30T20:01:08.474Z,2.30
2022-07-30T20:03:55.502Z,2.43
2022-07-30T20:06:48.974Z,2.20
2022-07-30T20:09:35.382Z,2.77
2022-07-30T20:12:21.867Z,3.50
2022-07-30T20:15:13.972Z,2.43
2022-07-30T20:18:03.261Z,2.50
2022-07-30T20:20:49.596Z,4.30
2022-07-30T20:23:37.230Z,2.70
2022-07-30T20:26:29.237Z,4.40
2022-07-30T20:29:19.033Z,4.63
2022-07-30T20:32:06.788Z,4.40
2022-07-30T20:34:55.449Z,6.20
2022-07-30T20:37:55.664Z,5.13
2022-07-30T20:40:46.488Z,5.00
2022-07-30T20:43:33.049Z,4.00
2022-07-30T20:46:34.920Z,3.27
2022-07-30T20:49:34.132Z,3.40
2022-07-30T20:52:23.565Z,2.80
2022-07-30T20:55:10.144Z,2.67
2022-07-30T20:58:13.836Z,2.87
2022-07-30T21:01:04.906Z,4.03
2022-07-30T21:03:51.085Z,4.87
2022-07-30T21:06:44.118Z,2.97
2022-07-30T21:09:52.039Z,2.93
2022-07-30T21:12:38.796Z,3.43
2022-07-30T21:15:26.426Z,5.90
2022-07-30T21:18:12.649Z,3.73
2022-07-30T21:20:59.108Z,3.47
2022-07-30T21:23:46.882Z,3.77
2022-07-30T21:26:36.418Z,3.50
2022-07-30T21:29:25.930Z,5.00
2022-07-30T21:32:13.835Z,4.43
2022-07-30T21:35:08.356Z,2.97
2022-07-30T21:37:55.086Z,4.43
2022-07-30T21:40:42.221Z,3.17
2022-07-30T21:43:30.599Z,2.80
2022-07-30T21:46:26.801Z,5.30
2022-07-30T21:49:14.401Z,4.33
2022-07-30T21:52:01.274Z,4.37
2022-07-30T21:54:49.725Z,4.27
2022-07-30T21:57:36.849Z,4.20
2022-07-30T22:00:44.577Z,4.93
2022-07-30T22:04:04.445Z,3.30
2022-07-30T22:06:40.399Z,5.13
2022-07-30T22:09:34.101Z,7.57
2022-07-30T22:12:20.662Z,4.23
2022-07-30T22:15:08.677Z,4.17
2022-07-30T22:17:58.413Z,3.77
2022-07-30T22:20:46.770Z,3.83
2022-07-30T22:23:32.975Z,3.27
2022-07-30T22:26:19.199Z,3.30
2022-07-30T22:29:07.055Z,3.10
2022-07-30T22:31:55.711Z,3.47
2022-07-30T22:34:43.161Z,3.10
2022-07-30T22:37:34.075Z,5.60
2022-07-30T22:40:20.719Z,3.53
2022-07-30T22:43:13.033Z,4.47
2022-07-30T22:46:02.144Z,3.20
2022-07-30T22:48:48.643Z,3.83
2022-07-30T22:51:58.566Z,4.03
2022-07-30T22:54:43.244Z,4.03
2022-07-30T22:57:29.669Z,5.40
2022-07-30T23:00:27.274Z,3.57
2022-07-30T23:03:14.450Z,5.03
2022-07-30T23:06:03.220Z,4.87
2022-07-30T23:08:51.298Z,3.07
2022-07-30T23:11:39.730Z,5.83
2022-07-30T23:14:26.789Z,3.20
2022-07-30T23:17:13.539Z,5.90
2022-07-30T23:19:59.997Z,3.57
2022-07-30T23:22:46.432Z,4.87
2022-07-30T23:25:38.621Z,4.20
2022-07-30T23:28:25.477Z,3.97
2022-07-30T23:31:11.764Z,3.10
2022-07-30T23:33:57.798Z,5.77
2022-07-30T23:36:44.019Z,5.90
2022-07-30T23:39:30.388Z,7.07
2022-07-30T23:42:18.772Z,3.43
2022-07-30T23:45:06.119Z,4.90
2022-07-30T23:48:02.673Z,11.87
2022-07-30T23:50:49.903Z,5.30
2022-07-30T23:53:36.224Z,4.17
2022-07-30T23:56:22.758Z,5.13
2022-07-30T23:59:12.404Z,3.73
